createdAt,value
2023-03-13T00:01:45.160Z,3.10
2023-03-13T00:04:11.577Z,2.53
2023-03-13T00:06:39.673Z,2.70
2023-03-13T00:09:08.921Z,3.03
2023-03-13T00:11:35.999Z,2.53
2023-03-13T00:14:04.715Z,3.05
2023-03-13T00:16:31.509Z,3.35
2023-03-13T00:18:58.590Z,3.35
2023-03-13T00:21:26.864Z,2.50
2023-03-13T00:23:54.233Z,2.88
2023-03-13T00:26:23.219Z,2.47
2023-03-13T00:31:22.954Z,2.03
2023-03-13T00:33:52.537Z,2.80
2023-03-13T00:36:22.161Z,2.75
2023-03-13T00:38:48.696Z,2.92
2023-03-13T00:41:20.334Z,2.67
2023-03-13T00:43:48.349Z,3.22
2023-03-13T00:46:17.736Z,3.00
2023-03-13T00:48:44.586Z,3.08
2023-03-13T00:51:13.046Z,3.00
2023-03-13T00:53:39.580Z,3.42
2023-03-13T00:56:09.058Z,3.33
2023-03-13T00:58:37.947Z,3.58
2023-03-13T01:01:12.612Z,3.08
2023-03-13T01:03:41.397Z,3.13
2023-03-13T01:06:10.875Z,3.03
2023-03-13T01:08:37.666Z,3.30
2023-03-13T01:11:13.515Z,3.10
2023-03-13T01:13:40.732Z,3.33
2023-03-13T01:16:10.991Z,3.35
2023-03-13T01:18:39.626Z,3.10
2023-03-13T01:21:06.614Z,2.65
2023-03-13T01:23:33.346Z,3.30
2023-03-13T01:25:59.807Z,4.20
2023-03-13T01:28:26.863Z,3.90
2023-03-13T01:30:54.364Z,2.83
2023-03-13T01:33:21.023Z,2.53
2023-03-13T01:35:47.857Z,3.13
2023-03-13T01:38:14.652Z,2.58
2023-03-13T01:40:46.933Z,2.72
2023-03-13T01:43:27.587Z,2.88
2023-03-13T01:46:09.779Z,2.08
2023-03-13T01:48:43.489Z,2.25
2023-03-13T01:51:29.716Z,2.25
2023-03-13T01:54:06.499Z,2.08
2023-03-13T01:57:08.525Z,2.35
2023-03-13T01:59:42.703Z,2.33
2023-03-13T02:02:09.778Z,2.28
2023-03-13T02:04:39.883Z,2.30
2023-03-13T02:07:16.198Z,2.33
2023-03-13T02:09:45.185Z,3.15
2023-03-13T02:14:43.812Z,2.30
2023-03-13T02:17:11.134Z,3.45
2023-03-13T02:19:43.809Z,2.30
2023-03-13T02:22:44.699Z,2.92
2023-03-13T02:25:23.705Z,2.95
2023-03-13T02:28:00.489Z,2.88
2023-03-13T02:30:28.640Z,3.58
2023-03-13T02:32:55.556Z,3.15
2023-03-13T02:35:24.151Z,3.42
2023-03-13T02:37:55.723Z,3.25
2023-03-13T02:40:30.874Z,3.92
2023-03-13T02:43:01.172Z,3.65
2023-03-13T02:45:28.485Z,4.05
2023-03-13T02:47:54.988Z,3.55
2023-03-13T02:50:21.699Z,4.68
2023-03-13T02:53:03.570Z,4.10
2023-03-13T02:55:41.188Z,4.55
2023-03-13T02:58:10.073Z,4.57
2023-03-13T03:00:37.790Z,4.60
2023-03-13T03:03:04.300Z,5.22
2023-03-13T03:05:31.810Z,4.90
2023-03-13T03:07:58.501Z,5.15
2023-03-13T03:10:25.453Z,5.45
2023-03-13T03:12:52.191Z,5.07
2023-03-13T03:15:18.818Z,5.88
2023-03-13T03:17:47.486Z,6.32
2023-03-13T03:20:14.573Z,6.05
2023-03-13T03:22:42.797Z,6.30
2023-03-13T03:25:09.614Z,5.93
2023-03-13T03:27:36.620Z,6.15
2023-03-13T03:30:07.200Z,5.82
2023-03-13T03:32:35.458Z,7.13
2023-03-13T03:35:02.614Z,6.65
2023-03-13T03:37:29.362Z,5.70
2023-03-13T03:39:56.613Z,6.05
2023-03-13T03:42:23.082Z,6.40
2023-03-13T03:44:49.515Z,6.10
2023-03-13T03:47:16.219Z,6.82
2023-03-13T03:49:45.428Z,6.00
2023-03-13T03:52:13.373Z,6.05
2023-03-13T03:54:42.130Z,4.93
2023-03-13T03:57:08.987Z,5.75
2023-03-13T03:59:36.804Z,5.15
2023-03-13T04:02:06.650Z,5.40
2023-03-13T04:04:33.926Z,4.80
2023-03-13T04:07:12.671Z,4.60
2023-03-13T04:09:40.176Z,4.50
2023-03-13T04:12:08.926Z,4.65
2023-03-13T04:14:40.325Z,5.05
2023-03-13T04:17:09.878Z,5.03
2023-03-13T04:19:36.676Z,4.25
2023-03-13T04:22:03.475Z,4.18
2023-03-13T04:24:29.983Z,4.35
2023-03-13T04:26:57.248Z,4.18
2023-03-13T04:29:24.101Z,4.03
2023-03-13T04:32:02.339Z,4.32
2023-03-13T04:34:42.655Z,4.25
2023-03-13T04:37:24.457Z,4.93
2023-03-13T04:40:23.286Z,4.63
2023-03-13T04:42:49.682Z,4.80
2023-03-13T04:45:50.093Z,4.65
2023-03-13T04:48:26.123Z,4.68
2023-03-13T04:50:59.929Z,4.53
2023-03-13T04:53:44.763Z,4.47
2023-03-13T04:56:43.686Z,4.00
2023-03-13T04:59:29.506Z,3.65
2023-03-13T05:02:20.560Z,4.55
2023-03-13T05:05:05.764Z,3.95
2023-03-13T05:07:57.224Z,4.85
2023-03-13T05:10:33.275Z,3.72
2023-03-13T05:13:11.061Z,4.25
2023-03-13T05:15:50.842Z,4.20
2023-03-13T05:18:36.039Z,2.60
2023-03-13T05:21:20.290Z,2.50
2023-03-13T05:24:17.111Z,2.72
2023-03-13T05:27:04.401Z,3.50
2023-03-13T05:29:39.750Z,2.53
2023-03-13T05:32:06.625Z,2.95
2023-03-13T05:34:55.980Z,3.28
2023-03-13T05:37:42.952Z,3.28
2023-03-13T05:40:27.891Z,3.00
2023-03-13T05:43:12.863Z,3.33
2023-03-13T05:45:48.719Z,2.65
2023-03-13T05:48:38.149Z,2.40
2023-03-13T05:51:24.893Z,2.72
2023-03-13T05:54:05.071Z,2.80
2023-03-13T05:56:55.618Z,2.33
2023-03-13T05:59:37.221Z,2.78
2023-03-13T06:02:18.110Z,2.28
2023-03-13T06:04:47.475Z,2.53
2023-03-13T06:07:14.122Z,1.98
2023-03-13T06:09:40.964Z,2.70
2023-03-13T06:12:09.583Z,2.20
2023-03-13T06:14:36.020Z,2.75
2023-03-13T06:17:19.534Z,2.10
2023-03-13T06:19:49.074Z,2.60
2023-03-13T06:22:16.808Z,2.53
2023-03-13T06:24:45.011Z,2.83
2023-03-13T06:27:11.464Z,2.30
2023-03-13T06:29:38.138Z,2.45
2023-03-13T06:32:04.921Z,2.78
2023-03-13T06:34:31.444Z,2.00
2023-03-13T06:36:58.694Z,2.38
2023-03-13T06:39:25.154Z,2.40
2023-03-13T06:41:51.648Z,2.50
2023-03-13T06:44:18.250Z,2.35
2023-03-13T06:46:44.681Z,2.08
2023-03-13T06:49:11.166Z,2.55
2023-03-13T06:51:37.620Z,2.60
2023-03-13T06:54:04.060Z,2.83
2023-03-13T06:56:30.542Z,2.30
2023-03-13T06:58:59.535Z,1.77
2023-03-13T07:01:26.641Z,2.30
2023-03-13T07:03:53.230Z,2.35
2023-03-13T07:06:19.973Z,2.17
2023-03-13T07:08:47.023Z,2.22
2023-03-13T07:11:14.521Z,1.95
2023-03-13T07:13:41.128Z,2.53
2023-03-13T07:16:10.807Z,2.35
2023-03-13T07:18:38.168Z,2.28
2023-03-13T07:21:05.349Z,2.35
2023-03-13T07:23:34.502Z,2.05
2023-03-13T07:26:03.294Z,2.50
2023-03-13T07:28:35.022Z,2.33
2023-03-13T07:31:21.847Z,2.20
2023-03-13T07:33:48.452Z,2.28
2023-03-13T07:36:16.242Z,2.35
2023-03-13T07:38:43.947Z,1.92
2023-03-13T07:41:13.389Z,2.22
2023-03-13T07:43:39.839Z,2.17
2023-03-13T07:46:08.222Z,2.83
2023-03-13T07:48:37.154Z,3.10
2023-03-13T07:51:05.770Z,2.97
2023-03-13T07:53:32.465Z,2.60
2023-03-13T07:56:12.159Z,2.35
2023-03-13T07:58:40.307Z,2.67
2023-03-13T08:01:15.434Z,2.70
2023-03-13T08:03:42.068Z,2.67
2023-03-13T08:06:11.432Z,3.00
2023-03-13T08:08:38.884Z,2.30
2023-03-13T08:11:20.791Z,2.78
2023-03-13T08:13:49.689Z,2.33
2023-03-13T08:16:20.422Z,1.83
2023-03-13T08:18:48.906Z,2.00
2023-03-13T08:21:21.190Z,2.70
2023-03-13T08:23:48.417Z,2.55
2023-03-13T08:26:21.352Z,2.17
2023-03-13T08:28:52.023Z,2.58
2023-03-13T08:31:22.606Z,2.47
2023-03-13T08:33:49.482Z,2.15
2023-03-13T08:36:23.174Z,2.20
2023-03-13T08:38:50.497Z,2.47
2023-03-13T08:41:19.595Z,2.20
2023-03-13T08:43:46.804Z,2.53
2023-03-13T08:46:14.205Z,2.35
2023-03-13T08:48:41.458Z,2.67
2023-03-13T08:51:15.166Z,2.30
2023-03-13T08:53:43.311Z,2.45
2023-03-13T08:56:12.137Z,2.47
2023-03-13T09:01:11.056Z,1.98
2023-03-13T09:03:38.875Z,1.60
2023-03-13T09:06:05.774Z,2.60
2023-03-13T09:08:33.133Z,2.10
2023-03-13T09:11:02.276Z,1.52
2023-03-13T09:13:31.577Z,1.70
2023-03-13T09:16:12.349Z,1.95
2023-03-13T09:18:39.341Z,2.03
2023-03-13T09:21:08.230Z,2.10
2023-03-13T09:26:02.070Z,1.33
2023-03-13T09:28:28.668Z,1.23
2023-03-13T09:30:55.264Z,1.42
2023-03-13T09:33:24.084Z,1.10
2023-03-13T09:38:20.227Z,1.17
2023-03-13T09:41:04.947Z,1.10
2023-03-13T09:43:42.594Z,1.20
2023-03-13T09:46:18.330Z,1.40
2023-03-13T09:48:55.992Z,1.20
2023-03-13T09:51:36.754Z,1.33
2023-03-13T09:54:12.135Z,1.20
2023-03-13T09:56:47.854Z,0.80
2023-03-13T09:59:34.907Z,1.10
2023-03-13T10:02:05.562Z,1.20
2023-03-13T10:04:49.350Z,1.00
2023-03-13T10:07:15.903Z,1.42
2023-03-13T10:09:43.170Z,1.25
2023-03-13T10:12:28.776Z,0.82
2023-03-13T10:15:01.503Z,1.02
2023-03-13T10:17:40.507Z,1.20
2023-03-13T10:20:31.603Z,0.95
2023-03-13T10:23:06.689Z,0.75
2023-03-13T10:25:39.168Z,1.02
2023-03-13T10:28:10.206Z,1.23
2023-03-13T10:30:40.793Z,1.05
2023-03-13T10:33:07.147Z,0.80
2023-03-13T10:35:37.372Z,1.20
2023-03-13T10:38:12.693Z,1.00
2023-03-13T10:40:39.839Z,1.05
2023-03-13T10:43:13.542Z,0.98
2023-03-13T10:45:40.084Z,1.65
2023-03-13T10:48:19.307Z,1.40
2023-03-13T10:50:51.720Z,1.17
2023-03-13T10:53:30.513Z,1.20
2023-03-13T10:56:11.518Z,0.90
2023-03-13T10:58:51.740Z,1.10
2023-03-13T11:01:28.819Z,1.33
2023-03-13T11:03:57.028Z,1.02
2023-03-13T11:06:35.115Z,1.20
2023-03-13T11:09:13.030Z,1.17
2023-03-13T11:12:01.001Z,1.10
2023-03-13T11:14:27.581Z,1.08
2023-03-13T11:17:30.463Z,0.90
2023-03-13T11:20:22.143Z,1.42
2023-03-13T11:23:25.665Z,1.10
2023-03-13T11:26:12.580Z,1.00
2023-03-13T11:28:39.008Z,1.10
2023-03-13T11:31:08.295Z,0.98
2023-03-13T11:34:03.095Z,1.10
2023-03-13T11:36:39.038Z,0.85
2023-03-13T11:39:33.619Z,0.80
2023-03-13T11:42:16.206Z,0.80
2023-03-13T11:44:59.325Z,1.02
2023-03-13T11:47:36.818Z,0.85
2023-03-13T11:50:15.861Z,1.23
2023-03-13T11:53:16.565Z,1.02
2023-03-13T11:55:57.031Z,1.00
2023-03-13T11:58:32.843Z,1.00
2023-03-13T12:00:59.445Z,0.75
2023-03-13T12:03:38.993Z,0.90
2023-03-13T12:06:25.641Z,0.80
2023-03-13T12:09:00.405Z,0.80
2023-03-13T12:11:32.222Z,0.70
2023-03-13T12:14:13.536Z,0.90
2023-03-13T12:16:40.047Z,0.82
2023-03-13T12:19:11.733Z,0.90
2023-03-13T12:21:47.435Z,1.30
2023-03-13T12:24:27.632Z,0.70
2023-03-13T12:27:25.572Z,1.20
2023-03-13T12:32:40.575Z,1.20
2023-03-13T12:35:12.941Z,1.02
2023-03-13T12:37:47.854Z,1.05
2023-03-13T12:40:20.278Z,1.20
2023-03-13T12:42:57.091Z,1.15
2023-03-13T12:45:26.078Z,1.45
2023-03-13T12:48:21.305Z,1.15
2023-03-13T12:51:05.876Z,1.63
2023-03-13T12:54:03.668Z,1.45
2023-03-13T12:56:45.564Z,1.20
2023-03-13T12:59:19.277Z,1.40
2023-03-13T13:01:54.705Z,1.20
2023-03-13T13:04:27.101Z,1.10
2023-03-13T13:06:54.982Z,1.35
2023-03-13T13:10:01.149Z,1.27
2023-03-13T13:12:27.908Z,1.73
2023-03-13T13:15:03.899Z,1.48
2023-03-13T13:17:39.220Z,1.58
2023-03-13T13:20:36.105Z,0.95
2023-03-13T13:23:21.329Z,1.05
2023-03-13T13:25:49.651Z,1.35
2023-03-13T13:28:22.060Z,1.65
2023-03-13T13:30:55.361Z,1.65
2023-03-13T13:33:28.151Z,1.00
2023-03-13T13:36:09.918Z,1.55
2023-03-13T13:38:41.765Z,1.98
2023-03-13T13:41:11.001Z,1.77
2023-03-13T13:43:38.395Z,1.25
2023-03-13T13:46:16.231Z,1.23
2023-03-13T13:48:43.398Z,1.92
2023-03-13T13:51:11.066Z,2.00
2023-03-13T13:53:45.189Z,1.85
2023-03-13T13:56:37.892Z,1.48
2023-03-13T13:59:24.712Z,1.80
2023-03-13T14:02:03.438Z,2.10
2023-03-13T14:04:40.947Z,1.80
2023-03-13T14:07:15.129Z,2.10
2023-03-13T14:10:00.254Z,1.80
2023-03-13T14:12:33.073Z,1.55
2023-03-13T14:15:10.250Z,1.75
2023-03-13T14:18:01.723Z,2.17
2023-03-13T14:20:32.797Z,1.50
2023-03-13T14:23:08.460Z,1.67
2023-03-13T14:25:47.698Z,2.08
2023-03-13T14:28:28.847Z,1.77
2023-03-13T14:30:57.570Z,1.50
2023-03-13T14:35:54.064Z,1.73
2023-03-13T14:38:23.305Z,1.67
2023-03-13T14:40:51.968Z,2.05
2023-03-13T14:43:32.448Z,2.17
2023-03-13T14:48:31.737Z,1.85
2023-03-13T14:51:15.537Z,1.50
2023-03-13T14:53:55.213Z,2.08
2023-03-13T14:56:34.655Z,2.15
2023-03-13T14:59:26.566Z,1.58
2023-03-13T15:02:12.745Z,1.42
2023-03-13T15:05:05.076Z,2.10
2023-03-13T15:07:40.777Z,2.22
2023-03-13T15:10:21.311Z,1.58
2023-03-13T15:12:48.532Z,1.85
2023-03-13T15:15:15.210Z,1.63
2023-03-13T15:17:41.852Z,1.52
2023-03-13T15:20:12.624Z,2.28
2023-03-13T15:22:41.549Z,2.15
2023-03-13T15:25:18.292Z,2.00
2023-03-13T15:27:45.074Z,1.73
2023-03-13T15:30:19.212Z,2.13
2023-03-13T15:32:46.974Z,2.08
2023-03-13T15:35:22.180Z,1.80
2023-03-13T15:37:48.662Z,1.80
2023-03-13T15:40:16.748Z,2.55
2023-03-13T15:42:43.325Z,1.60
2023-03-13T15:45:10.201Z,1.80
2023-03-13T15:47:36.962Z,2.05
2023-03-13T15:50:04.177Z,1.77
2023-03-13T15:52:31.501Z,1.50
2023-03-13T15:54:57.973Z,2.00
2023-03-13T15:57:26.256Z,1.80
2023-03-13T15:59:53.795Z,1.95
2023-03-13T16:02:23.363Z,2.30
2023-03-13T16:04:50.789Z,2.08
2023-03-13T16:07:20.729Z,1.90
2023-03-13T16:09:47.978Z,1.73
2023-03-13T16:12:14.465Z,2.20
2023-03-13T16:14:41.627Z,1.70
2023-03-13T16:17:14.644Z,1.67
2023-03-13T16:19:41.312Z,1.85
2023-03-13T16:22:07.847Z,2.58
2023-03-13T16:24:34.328Z,1.90
2023-03-13T16:27:00.799Z,1.80
2023-03-13T16:29:27.853Z,2.65
2023-03-13T16:31:54.312Z,1.80
2023-03-13T16:34:20.760Z,2.50
2023-03-13T16:36:47.252Z,2.25
2023-03-13T16:39:17.011Z,2.50
2023-03-13T16:41:43.413Z,1.85
2023-03-13T16:44:10.372Z,2.10
2023-03-13T16:46:39.888Z,2.42
2023-03-13T16:49:10.133Z,2.17
2023-03-13T16:51:36.631Z,2.03
2023-03-13T16:54:03.833Z,2.75
2023-03-13T16:56:36.456Z,2.67
2023-03-13T16:59:10.615Z,2.25
2023-03-13T17:01:37.583Z,2.05
2023-03-13T17:04:04.832Z,1.80
2023-03-13T17:06:37.057Z,2.30
2023-03-13T17:09:07.224Z,2.15
2023-03-13T17:11:33.778Z,2.35
2023-03-13T17:14:00.225Z,2.53
2023-03-13T17:16:33.059Z,2.28
2023-03-13T17:19:00.669Z,2.50
2023-03-13T17:21:30.061Z,2.35
2023-03-13T17:23:56.927Z,2.22
2023-03-13T17:26:33.739Z,2.03
2023-03-13T17:29:00.782Z,2.40
2023-03-13T17:31:30.300Z,2.70
2023-03-13T17:33:56.856Z,2.55
2023-03-13T17:36:27.090Z,3.00
2023-03-13T17:38:58.490Z,2.35
2023-03-13T17:41:27.864Z,2.38
2023-03-13T17:43:55.221Z,2.80
2023-03-13T17:46:24.379Z,2.67
2023-03-13T17:48:53.374Z,2.20
2023-03-13T17:53:49.128Z,2.28
2023-03-13T17:56:18.481Z,2.80
2023-03-13T17:58:45.563Z,3.53
2023-03-13T18:01:14.489Z,3.28
2023-03-13T18:03:41.859Z,3.35
2023-03-13T18:06:39.422Z,2.70
2023-03-13T18:09:08.671Z,3.22
2023-03-13T18:11:36.901Z,3.15
2023-03-13T18:14:05.357Z,2.67
2023-03-13T18:16:37.591Z,3.08
2023-03-13T18:19:21.972Z,2.63
2023-03-13T18:21:51.106Z,1.98
2023-03-13T18:24:17.832Z,2.70
2023-03-13T18:26:45.745Z,2.70
2023-03-13T18:29:14.834Z,2.35
2023-03-13T18:31:44.251Z,2.95
2023-03-13T18:34:12.366Z,3.47
2023-03-13T18:36:39.422Z,2.97
2023-03-13T18:39:06.514Z,2.90
2023-03-13T18:41:34.239Z,3.25
2023-03-13T18:44:03.608Z,2.83
2023-03-13T18:46:31.890Z,2.95
2023-03-13T18:49:00.428Z,2.85
2023-03-13T18:51:28.376Z,2.95
2023-03-13T18:53:55.174Z,2.47
2023-03-13T18:56:39.567Z,2.67
2023-03-13T18:59:11.191Z,2.63
2023-03-13T19:01:37.712Z,3.67
2023-03-13T19:04:04.182Z,2.35
2023-03-13T19:06:36.071Z,2.45
2023-03-13T19:12:06.587Z,2.88
2023-03-13T19:14:33.545Z,2.58
2023-03-13T19:16:59.988Z,3.05
2023-03-13T19:19:26.444Z,2.63
2023-03-13T19:21:56.650Z,3.17
2023-03-13T19:24:26.471Z,2.65
2023-03-13T19:26:58.384Z,2.50
2023-03-13T19:29:27.237Z,2.83
2023-03-13T19:31:54.638Z,2.00
2023-03-13T19:34:21.233Z,3.25
2023-03-13T19:36:49.357Z,3.05
2023-03-13T19:39:24.238Z,2.92
2023-03-13T19:41:51.612Z,3.03
2023-03-13T19:44:19.595Z,2.95
2023-03-13T19:46:46.713Z,2.65
2023-03-13T19:49:18.709Z,2.90
2023-03-13T19:51:45.565Z,2.53
2023-03-13T19:54:12.743Z,3.33
2023-03-13T19:56:41.308Z,2.75
2023-03-13T19:59:14.786Z,2.78
2023-03-13T20:01:41.696Z,3.13
2023-03-13T20:04:08.194Z,2.75
2023-03-13T20:06:35.577Z,3.28
2023-03-13T20:09:06.376Z,3.10
2023-03-13T20:11:33.492Z,2.85
2023-03-13T20:13:59.928Z,2.35
2023-03-13T20:16:30.039Z,2.53
2023-03-13T20:18:57.325Z,2.90
2023-03-13T20:21:27.499Z,3.15
2023-03-13T20:23:53.967Z,2.60
2023-03-13T20:26:21.463Z,2.90
2023-03-13T20:28:52.076Z,3.38
2023-03-13T20:31:21.989Z,3.60
2023-03-13T20:33:48.506Z,2.88
2023-03-13T20:36:17.712Z,2.90
2023-03-13T20:38:44.167Z,3.20
2023-03-13T20:41:11.502Z,2.90
2023-03-13T20:43:39.139Z,3.13
2023-03-13T20:46:09.771Z,2.92
2023-03-13T20:48:39.140Z,2.78
2023-03-13T20:51:07.268Z,3.05
2023-03-13T20:53:38.614Z,2.97
2023-03-13T20:56:07.282Z,2.53
2023-03-13T20:58:34.825Z,2.30
2023-03-13T21:01:02.974Z,3.25
2023-03-13T21:03:29.586Z,3.05
2023-03-13T21:05:55.997Z,2.75
2023-03-13T21:08:22.946Z,3.42
2023-03-13T21:10:49.451Z,6.22
2023-03-13T21:13:15.988Z,3.88
2023-03-13T21:15:42.509Z,5.03
2023-03-13T21:18:09.110Z,3.40
2023-03-13T21:20:38.297Z,3.78
2023-03-13T21:23:04.791Z,3.75
2023-03-13T21:25:31.446Z,3.17
2023-03-13T21:27:57.960Z,3.67
2023-03-13T21:30:24.484Z,3.40
2023-03-13T21:32:51.174Z,3.40
2023-03-13T21:35:17.928Z,3.25
2023-03-13T21:37:44.455Z,3.70
2023-03-13T21:40:12.307Z,3.05
2023-03-13T21:42:39.024Z,1.95
2023-03-13T21:45:06.687Z,2.65
2023-03-13T21:47:36.887Z,2.60
2023-03-13T21:50:06.949Z,2.55
2023-03-13T21:52:38.274Z,3.70
2023-03-13T21:55:09.934Z,2.88
2023-03-13T21:57:36.454Z,3.38
2023-03-13T22:00:07.823Z,3.42
2023-03-13T22:02:37.604Z,1.98
2023-03-13T22:05:05.045Z,2.58
2023-03-13T22:07:31.593Z,2.58
2023-03-13T22:09:58.562Z,2.65
2023-03-13T22:12:25.648Z,2.80
2023-03-13T22:14:52.921Z,2.72
2023-03-13T22:17:20.306Z,2.38
2023-03-13T22:19:47.385Z,2.65
2023-03-13T22:22:14.691Z,3.15
2023-03-13T22:24:41.885Z,3.00
2023-03-13T22:27:10.069Z,2.50
2023-03-13T22:29:36.627Z,2.20
2023-03-13T22:32:04.178Z,2.65
2023-03-13T22:34:30.875Z,2.90
2023-03-13T22:36:57.338Z,2.78
2023-03-13T22:39:23.828Z,2.40
2023-03-13T22:41:50.501Z,2.17
2023-03-13T22:44:16.966Z,2.42
2023-03-13T22:46:43.373Z,3.45
2023-03-13T22:49:09.815Z,4.22
2023-03-13T22:51:36.204Z,4.68
2023-03-13T22:54:02.675Z,9.43
2023-03-13T22:56:29.153Z,4.13
2023-03-13T22:58:55.576Z,3.38
2023-03-13T23:01:22.794Z,2.60
2023-03-13T23:03:49.412Z,2.70
2023-03-13T23:06:20.227Z,2.67
2023-03-13T23:08:47.032Z,2.78
2023-03-13T23:11:13.772Z,2.40
2023-03-13T23:13:40.702Z,2.72
2023-03-13T23:16:09.622Z,2.35
2023-03-13T23:21:08.938Z,2.40
2023-03-13T23:23:36.064Z,2.13
2023-03-13T23:26:04.749Z,2.88
2023-03-13T23:28:31.354Z,3.15
2023-03-13T23:30:57.817Z,2.53
2023-03-13T23:33:24.313Z,3.03
2023-03-13T23:35:50.789Z,2.65
2023-03-13T23:38:20.570Z,2.88
2023-03-13T23:40:47.027Z,2.95
2023-03-13T23:43:13.482Z,3.33
2023-03-13T23:45:39.894Z,3.40
2023-03-13T23:48:06.620Z,3.20
2023-03-13T23:50:33.084Z,2.80
2023-03-13T23:52:59.568Z,3.05
2023-03-13T23:55:26.072Z,2.92
2023-03-13T23:57:52.471Z,3.40
